Time;durP1;ratioP1;P1;durP2;ratioP2;P2;SDS_P1;SDS_P2;PMS_P1;PMS_P2;Temp;Humidity;BMP_temperature;BMP_pressure;BME280_temperature;BME280_humidity;BME280_pressure;Samples;Min_cycle;Max_cycle;Signal;HPM_P1;HPM_P2
2022/03/18 00:00:20;;;;;;;9.38;3.95;;;;;;;-2.58;67.38;147033.53;1768384;79;21527;-63
2022/03/18 00:02:44;;;;;;;7.17;4.15;;;;;;;-2.60;67.06;147029.66;1767055;81;21082;-63
2022/03/18 00:05:12;;;;;;;7.15;3.92;;;;;;;-2.62;66.98;147024.52;1737496;82;20952;-63
2022/03/18 00:07:40;;;;;;;7.60;4.30;;;;;;;-2.63;67.22;147020.69;1737342;82;21012;-57
2022/03/18 00:10:09;;;;;;;9.10;4.40;;;;;;;-2.66;67.53;147012.95;1737604;82;21583;-64
2022/03/18 00:12:37;;;;;;;8.03;4.00;;;;;;;-2.68;67.53;147009.12;1737566;82;21769;-59
2022/03/18 00:15:12;;;;;;;8.38;4.22;;;;;;;-2.70;68.05;147003.98;1737424;82;21058;-59
2022/03/18 00:17:40;;;;;;;8.00;4.25;;;;;;;-2.73;68.37;146996.30;1737161;82;21107;-64
2022/03/18 00:20:09;;;;;;;9.78;4.55;;;;;;;-2.76;68.45;146989.86;1736632;82;21083;-58
2022/03/18 00:22:36;;;;;;;12.50;4.65;;;;;;;-2.79;68.59;146980.84;1768687;81;21402;-58
2022/03/18 00:25:04;;;;;;;9.18;4.53;;;;;;;-2.81;68.86;146975.72;1765034;79;22687;-58
2022/03/18 00:27:32;;;;;;;10.65;4.67;;;;;;;-2.84;69.15;146969.33;1763077;81;21036;-62
2022/03/18 00:29:59;;;;;;;8.55;3.95;;;;;;;-2.87;69.00;146961.63;1749333;82;21099;-59
2022/03/18 00:32:26;;;;;;;8.95;4.65;;;;;;;-2.91;69.33;146952.63;1763018;79;21039;-58
2022/03/18 00:34:54;;;;;;;12.25;4.45;;;;;;;-2.94;69.80;146943.63;1749822;82;21169;-58
2022/03/18 00:37:21;;;;;;;14.85;4.42;;;;;;;-2.96;70.02;146939.81;1763087;79;21215;-58
2022/03/18 00:39:48;;;;;;;8.05;4.22;;;;;;;-2.98;70.28;146933.36;1749453;80;21005;-61
2022/03/18 00:42:15;;;;;;;9.20;4.50;;;;;;;-3.00;70.72;146929.50;1762748;79;21041;-63
2022/03/18 00:44:42;;;;;;;9.30;4.63;;;;;;;-3.03;70.52;146923.11;1749738;80;21450;-58
2022/03/18 00:52:41;;;;;;;10.65;5.37;;;;;;;-3.07;70.89;146911.53;1762844;81;21032;-64
2022/03/18 00:55:09;;;;;;;9.10;4.65;;;;;;;-3.09;71.05;146906.41;1762612;79;21088;-64
2022/03/18 00:57:36;;;;;;;9.45;5.25;;;;;;;-3.15;71.09;146891.02;1749632;81;20969;-58
2022/03/18 01:00:07;;;;;;;12.85;5.20;;;;;;;-3.21;71.19;146878.14;1762737;81;21043;-64
2022/03/18 01:02:34;;;;;;;11.20;5.55;;;;;;;-3.26;71.44;146865.33;1749609;82;21414;-64
2022/03/18 01:05:01;;;;;;;11.83;5.55;;;;;;;-3.30;71.69;146855.06;1762485;79;21023;-64
2022/03/18 01:07:29;;;;;;;11.40;5.57;;;;;;;-3.33;72.26;146847.37;1762910;79;21067;-64
2022/03/18 01:09:57;;;;;;;13.43;5.20;;;;;;;-3.36;72.48;146839.67;1749481;80;21075;-64
2022/03/18 01:12:25;;;;;;;14.33;7.10;;;;;;;-3.39;72.51;146833.25;1763073;81;21639;-58
2022/03/18 01:14:52;;;;;;;14.77;7.13;;;;;;;-3.41;73.18;146828.13;1749679;82;21128;-59
2022/03/18 01:17:21;;;;;;;13.13;5.40;;;;;;;-3.43;72.71;146821.69;1762833;81;21234;-58
2022/03/18 01:19:49;;;;;;;9.47;5.03;;;;;;;-3.46;72.48;146815.30;1762864;79;21355;-58
2022/03/18 01:22:17;;;;;;;13.25;5.67;;;;;;;-3.51;72.38;146803.73;1749538;82;21104;-59
2022/03/18 01:24:43;;;;;;;9.33;5.50;;;;;;;-3.54;72.28;146796.03;1762931;79;20990;-59
2022/03/18 01:27:11;;;;;;;14.90;6.12;;;;;;;-3.56;72.19;146790.91;1748793;82;21300;-57
2022/03/18 01:29:38;;;;;;;10.10;5.10;;;;;;;-3.58;72.21;146785.78;1763006;81;20976;-65
2022/03/18 01:32:07;;;;;;;11.60;4.80;;;;;;;-3.58;72.22;146784.47;1762577;79;21052;-64
2022/03/18 01:34:34;;;;;;;18.77;8.30;;;;;;;-3.59;72.27;146783.22;1749715;82;21045;-64
2022/03/18 01:37:02;;;;;;;20.20;7.70;;;;;;;-3.58;72.27;146784.47;1762632;79;21087;-59
2022/03/18 01:39:30;;;;;;;15.23;5.85;;;;;;;-3.61;72.36;146779.34;1763023;81;21349;-59
2022/03/18 01:41:57;;;;;;;13.32;5.30;;;;;;;-3.60;72.46;146780.66;1749151;80;21091;-59
2022/03/18 01:44:24;;;;;;;9.53;5.00;;;;;;;-3.63;72.39;146774.22;1763055;79;21442;-57
2022/03/18 01:46:50;;;;;;;12.82;5.35;;;;;;;-3.68;72.58;146760.09;1749271;82;21534;-65
2022/03/18 01:49:17;;;;;;;12.03;5.95;;;;;;;-3.73;72.58;146748.59;1762758;81;21098;-58
2022/03/18 01:51:44;;;;;;;11.48;5.10;;;;;;;-3.78;72.61;146737.03;1763140;81;21177;-58
2022/03/18 01:56:59;;;;;;;12.83;5.37;;;;;;;-3.86;72.84;146715.22;1762918;81;21031;-58
2022/03/18 01:59:26;;;;;;;9.17;5.10;;;;;;;-3.90;72.93;146707.53;1762972;81;21563;-63
2022/03/18 02:01:53;;;;;;;15.48;6.37;;;;;;;-3.91;72.95;146703.66;1720002;82;21072;-64
2022/03/18 02:04:22;;;;;;;9.33;4.90;;;;;;;-3.93;73.08;146698.53;1762389;79;21496;-64
2022/03/18 02:06:51;;;;;;;11.77;5.30;;;;;;;-3.95;73.09;146693.41;1748595;81;21060;-65
2022/03/18 02:09:20;;;;;;;10.78;4.72;;;;;;;-3.96;73.16;146690.84;1762765;81;21496;-65
2022/03/18 02:11:48;;;;;;;12.15;4.87;;;;;;;-3.97;73.16;146688.28;1748842;82;21134;-64
2022/03/18 02:14:30;;;;;;;12.43;4.90;;;;;;;-3.98;73.13;146685.72;1762340;79;21052;-64
2022/03/18 02:16:58;;;;;;;14.90;6.00;;;;;;;-4.00;73.17;146681.84;1757870;79;20975;-58
2022/03/18 02:19:26;;;;;;;10.63;5.37;;;;;;;-4.03;73.15;146674.16;1762572;79;21055;-59
2022/03/18 02:21:56;;;;;;;12.83;5.33;;;;;;;-4.06;73.18;146667.78;1748804;80;21019;-58
2022/03/18 02:24:25;;;;;;;21.53;9.60;;;;;;;-4.09;73.19;146660.08;1762686;79;21071;-64
2022/03/18 02:26:53;;;;;;;16.97;7.12;;;;;;;-4.13;73.53;146649.78;1758711;80;21098;-57
2022/03/18 02:29:21;;;;;;;14.73;5.67;;;;;;;-4.18;73.67;146638.28;1756932;81;21698;-57
2022/03/18 02:31:48;;;;;;;10.73;4.93;;;;;;;-4.19;74.20;146634.41;1756161;80;21111;-63
2022/03/18 02:34:15;;;;;;;12.00;4.83;;;;;;;-4.21;74.58;146630.55;1756898;80;21509;-59
2022/03/18 02:36:44;;;;;;;11.13;5.43;;;;;;;-4.23;75.46;146625.41;1757219;81;21008;-58
2022/03/18 02:39:11;;;;;;;12.60;5.70;;;;;;;-4.23;75.75;146624.16;1756982;80;21048;-64
2022/03/18 02:41:38;;;;;;;12.58;5.03;;;;;;;-4.23;75.79;146624.16;1757412;81;21344;-64
2022/03/18 02:44:05;;;;;;;10.27;4.97;;;;;;;-4.24;76.28;146621.59;1756425;81;21008;-65
2022/03/18 02:46:33;;;;;;;13.10;5.40;;;;;;;-4.24;76.32;146621.59;1757364;80;20972;-59
2022/03/18 02:49:04;;;;;;;9.50;5.00;;;;;;;-4.25;76.37;146619.03;1757204;81;21051;-58
2022/03/18 02:51:31;;;;;;;13.13;5.60;;;;;;;-4.23;76.49;146625.41;1757879;81;21000;-63
2022/03/18 02:53:58;;;;;;;13.10;5.53;;;;;;;-4.22;76.02;146627.97;1757021;80;21560;-63
2022/03/18 02:56:25;;;;;;;12.37;5.60;;;;;;;-4.20;75.86;146631.84;1756880;81;21068;-64
2022/03/18 02:58:53;;;;;;;11.83;5.63;;;;;;;-4.17;75.08;146639.53;1757227;81;21089;-64
2022/03/18 03:01:20;;;;;;;14.83;5.63;;;;;;;-4.15;74.51;146644.66;1757166;81;21047;-64
2022/03/18 03:03:47;;;;;;;10.47;4.97;;;;;;;-4.15;73.81;146643.41;1757383;81;20885;-63
2022/03/18 03:09:00;;;;;;;20.50;6.47;;;;;;;-4.15;71.85;146644.66;1757174;80;22282;-64
2022/03/18 03:11:29;;;;;;;13.80;5.57;;;;;;;-4.15;69.41;146643.41;1757470;81;21458;-64
2022/03/18 03:13:57;;;;;;;15.07;5.73;;;;;;;-4.15;70.26;146644.66;1756937;81;21087;-64
2022/03/18 03:16:24;;;;;;;12.90;5.60;;;;;;;-4.15;69.66;146644.66;1757211;81;21071;-64
2022/03/18 03:18:54;;;;;;;10.90;4.60;;;;;;;-4.19;68.45;146634.41;1757060;81;21073;-64
2022/03/18 03:21:21;;;;;;;13.13;5.07;;;;;;;-4.20;68.33;146631.84;1756942;80;21639;-65
2022/03/18 03:23:48;;;;;;;13.30;5.43;;;;;;;-4.23;67.84;146624.16;1757274;80;20924;-64
2022/03/18 03:26:16;;;;;;;19.85;5.50;;;;;;;-4.24;67.62;146621.59;1757232;80;21028;-63
2022/03/18 03:28:45;;;;;;;13.80;5.20;;;;;;;-4.24;67.17;146622.86;1757558;80;20993;-64
2022/03/18 03:31:12;;;;;;;11.33;5.43;;;;;;;-4.25;67.25;146620.30;1757412;81;21153;-64
2022/03/18 03:33:39;;;;;;;12.20;5.27;;;;;;;-4.25;66.98;146619.03;1757545;80;21040;-64
2022/03/18 03:36:06;;;;;;;9.90;4.87;;;;;;;-4.26;66.95;146617.73;1757194;81;21059;-64
2022/03/18 03:38:35;;;;;;;12.07;5.30;;;;;;;-4.26;67.34;146616.47;1757420;80;21465;-64
2022/03/18 03:41:02;;;;;;;10.43;4.63;;;;;;;-4.26;67.68;146616.47;1756895;80;21067;-65
2022/03/18 03:43:29;;;;;;;10.73;4.73;;;;;;;-4.26;67.50;146616.47;1757242;80;21058;-65
2022/03/18 03:45:57;;;;;;;12.37;5.00;;;;;;;-4.27;67.52;146613.91;1757292;80;21320;-59
2022/03/18 03:48:24;;;;;;;10.93;5.37;;;;;;;-4.29;68.08;146610.05;1749616;81;21632;-56
2022/03/18 03:50:51;;;;;;;9.93;5.47;;;;;;;-4.28;68.51;146612.61;1728635;81;21436;-57
2022/03/18 03:53:18;;;;;;;12.97;6.03;;;;;;;-4.28;68.65;146611.34;1728520;81;21096;-57
2022/03/18 03:55:45;;;;;;;10.17;4.37;;;;;;;-4.29;68.92;146610.05;1728619;81;21392;-58
2022/03/18 03:58:14;;;;;;;11.87;5.47;;;;;;;-4.29;68.71;146610.05;1733845;81;21062;-57
2022/03/18 04:00:41;;;;;;;16.77;5.37;;;;;;;-4.28;68.41;146612.61;1756836;81;20989;-58
2022/03/18 04:03:08;;;;;;;13.10;5.53;;;;;;;-4.29;68.89;146610.05;1756448;80;21048;-63
2022/03/18 04:05:38;;;;;;;11.63;5.37;;;;;;;-4.28;69.03;146611.34;1757501;81;21489;-64
2022/03/18 04:08:05;;;;;;;12.97;5.33;;;;;;;-4.28;69.33;146611.34;1756995;81;21239;-64
2022/03/18 04:10:32;;;;;;;15.47;5.40;;;;;;;-4.26;69.98;146617.73;1757178;80;21107;-64
2022/03/18 04:12:59;;;;;;;12.93;5.83;;;;;;;-4.26;69.51;146616.47;1756683;80;21004;-64
2022/03/18 04:15:27;;;;;;;12.97;6.13;;;;;;;-4.27;68.87;146613.91;1756748;81;20980;-64
2022/03/18 04:17:54;;;;;;;16.17;7.13;;;;;;;-4.28;69.51;146611.34;1756529;81;21087;-65
2022/03/18 04:20:22;;;;;;;21.23;7.30;;;;;;;-4.29;69.25;146608.78;1756907;81;22198;-64
2022/03/18 04:22:51;;;;;;;14.17;6.63;;;;;;;-4.29;69.24;146608.78;1757724;81;20984;-64
2022/03/18 04:25:24;;;;;;;15.27;6.73;;;;;;;-4.32;69.61;146603.61;1757273;81;21295;-63
2022/03/18 04:27:49;;;;;;;14.20;6.00;;;;;;;-4.28;69.70;146612.61;1754261;81;20997;-64
2022/03/18 04:30:15;;;;;;;12.97;6.77;;;;;;;-4.28;69.44;146611.34;1754573;81;21222;-58
2022/03/18 04:32:43;;;;;;;14.07;6.03;;;;;;;-4.29;69.24;146608.78;1754895;80;21238;-57
2022/03/18 04:35:11;;;;;;;13.43;5.97;;;;;;;-4.28;69.43;146611.34;1754262;80;21103;-64
2022/03/18 04:37:41;;;;;;;15.23;6.93;;;;;;;-4.26;69.35;146616.47;1754629;81;21056;-64
2022/03/18 04:40:13;;;;;;;13.93;6.63;;;;;;;-4.26;69.07;146617.73;1753921;80;21091;-64
2022/03/18 04:42:41;;;;;;;12.93;5.97;;;;;;;-4.26;68.98;146616.47;1755078;80;20873;-64
2022/03/18 04:45:09;;;;;;;10.77;4.73;;;;;;;-4.27;69.07;146613.91;1754630;80;21406;-64
2022/03/18 04:47:36;;;;;;;14.57;6.43;;;;;;;-4.29;68.43;146610.05;1755275;80;21241;-64
2022/03/18 04:50:05;;;;;;;18.77;6.50;;;;;;;-4.30;68.41;146606.22;1754830;81;21060;-64
2022/03/18 04:52:32;;;;;;;14.33;5.73;;;;;;;-4.33;68.76;146599.80;1754869;80;21095;-64
2022/03/18 04:55:01;;;;;;;16.83;7.13;;;;;;;-4.37;68.78;146590.81;1727315;81;20999;-63
2022/03/18 04:57:28;;;;;;;13.43;6.70;;;;;;;-4.36;69.44;146592.11;1754652;80;21262;-65
2022/03/18 04:59:56;;;;;;;15.70;6.70;;;;;;;-4.35;69.72;146595.92;1754541;80;20976;-64
2022/03/18 05:02:25;;;;;;;13.10;6.83;;;;;;;-4.34;69.68;146598.48;1754730;80;20964;-64
2022/03/18 05:04:53;;;;;;;17.60;6.27;;;;;;;-4.32;69.54;146603.61;1754662;80;21031;-63
2022/03/18 05:07:20;;;;;;;16.23;6.33;;;;;;;-4.32;70.01;146603.61;1754495;81;21103;-64
2022/03/18 05:09:47;;;;;;;16.42;7.62;;;;;;;-4.30;70.28;146607.48;1754865;81;21227;-64
2022/03/18 05:12:15;;;;;;;15.77;6.97;;;;;;;-4.27;70.92;146613.91;1754732;80;21024;-64
2022/03/18 05:14:42;;;;;;;14.23;6.73;;;;;;;-4.24;70.71;146621.59;1755203;80;21048;-58
2022/03/18 05:17:11;;;;;;;13.90;6.63;;;;;;;-4.24;70.79;146621.59;1753614;81;21080;-64
2022/03/18 05:19:38;;;;;;;13.50;6.93;;;;;;;-4.27;70.78;146615.17;1754275;80;21024;-64
2022/03/18 05:22:07;;;;;;;16.00;6.77;;;;;;;-4.24;70.77;146621.59;1753129;80;21127;-64
2022/03/18 05:24:35;;;;;;;14.97;7.03;;;;;;;-4.20;69.72;146633.16;1753665;80;21028;-64
2022/03/18 05:27:04;;;;;;;14.13;6.35;;;;;;;-4.15;69.38;146644.66;1755795;79;21102;-63
2022/03/18 05:29:32;;;;;;;15.60;7.55;;;;;;;-4.09;69.33;146658.78;1762614;81;21096;-64
2022/03/18 05:32:00;;;;;;;15.10;6.47;;;;;;;-4.10;68.69;146656.22;1762298;79;21122;-64
2022/03/18 05:34:28;;;;;;;21.23;7.10;;;;;;;-4.12;68.90;146652.34;1762495;79;21300;-65
2022/03/18 05:36:58;;;;;;;13.88;6.70;;;;;;;-4.12;68.30;146652.34;1762817;81;20929;-65
2022/03/18 05:39:25;;;;;;;14.97;5.90;;;;;;;-4.12;68.04;146652.34;1762459;81;21216;-64
2022/03/18 05:41:53;;;;;;;17.17;6.03;;;;;;;-4.13;67.84;146649.78;1762640;79;20971;-65
2022/03/18 05:44:20;;;;;;;15.30;6.57;;;;;;;-4.12;68.28;146652.34;1748815;80;22393;-64
2022/03/18 05:46:46;;;;;;;18.23;6.22;;;;;;;-4.09;69.03;146660.08;1762738;79;21860;-64
2022/03/18 05:49:14;;;;;;;16.95;7.28;;;;;;;-4.06;68.67;146666.47;1748929;80;21525;-64
2022/03/18 05:51:41;;;;;;;10.67;5.67;;;;;;;-4.04;68.18;146671.59;1763123;81;21430;-65
2022/03/18 05:54:09;;;;;;;19.70;8.20;;;;;;;-4.03;67.89;146675.47;1762806;81;21027;-64
2022/03/18 05:56:54;;;;;;;17.82;7.05;;;;;;;-4.01;68.09;146678.03;1762673;81;21527;-64
2022/03/18 05:59:29;;;;;;;13.60;5.57;;;;;;;-3.95;68.01;146693.41;1762528;81;22153;-64
2022/03/18 06:01:59;;;;;;;21.50;7.13;;;;;;;-3.85;67.00;146717.78;1763390;79;21409;-64
2022/03/18 06:04:26;;;;;;;25.30;6.55;;;;;;;-3.84;66.07;146720.34;1749061;81;21031;-64
2022/03/18 06:06:53;;;;;;;26.20;6.42;;;;;;;-3.91;65.02;146703.66;1762985;79;21008;-65
2022/03/18 06:12:09;;;;;;;19.73;5.85;;;;;;;-3.94;65.54;146695.97;1763024;81;21132;-64
2022/03/18 06:14:37;;;;;;;16.23;6.45;;;;;;;-3.95;64.90;146693.41;1763184;79;21011;-65
2022/03/18 06:17:05;;;;;;;11.63;5.50;;;;;;;-3.97;65.01;146689.58;1749351;80;20971;-64
2022/03/18 06:19:33;;;;;;;19.83;6.10;;;;;;;-3.96;65.22;146692.14;1762877;81;21067;-64
2022/03/18 06:22:01;;;;;;;12.15;5.17;;;;;;;-3.93;65.05;146698.53;1762913;81;21623;-65
2022/03/18 06:24:29;;;;;;;19.83;6.43;;;;;;;-3.91;64.89;146703.66;1762788;79;21871;-64
2022/03/18 06:26:56;;;;;;;11.93;6.08;;;;;;;-3.89;64.92;146710.09;1762018;81;20936;-62
2022/03/18 06:29:23;;;;;;;10.70;5.27;;;;;;;-3.80;64.73;146730.59;1756774;81;21079;-64
2022/03/18 06:31:50;;;;;;;10.70;5.10;;;;;;;-3.68;65.07;146760.09;1757319;81;20989;-64
2022/03/18 06:34:20;;;;;;;12.25;5.78;;;;;;;-3.58;64.31;146785.78;1756693;81;21056;-64
2022/03/18 06:36:48;;;;;;;13.13;5.08;;;;;;;-3.58;63.68;146785.78;1757262;81;21207;-65
2022/03/18 06:39:15;;;;;;;13.80;6.60;;;;;;;-3.63;62.79;146774.22;1756966;80;21103;-64
2022/03/18 06:41:42;;;;;;;13.80;5.75;;;;;;;-3.70;62.74;146754.97;1757159;81;21082;-64
2022/03/18 06:44:09;;;;;;;15.10;5.67;;;;;;;-3.76;63.55;146742.16;1756952;81;21121;-64
2022/03/18 06:46:38;;;;;;;12.18;5.35;;;;;;;-3.71;64.67;146753.72;1757353;80;21536;-64
2022/03/18 06:49:06;;;;;;;12.47;5.70;;;;;;;-3.67;64.40;146762.66;1757320;80;21129;-65
2022/03/18 06:51:33;;;;;;;19.53;5.70;;;;;;;-3.69;64.08;146757.53;1757485;80;21043;-64
2022/03/18 06:54:00;;;;;;;12.58;5.08;;;;;;;-3.71;63.93;146752.41;1757308;81;21362;-64
2022/03/18 06:56:30;;;;;;;16.80;5.23;;;;;;;-3.72;62.79;146749.84;1757224;80;21055;-63
2022/03/18 06:58:57;;;;;;;11.90;5.87;;;;;;;-3.74;63.45;146747.28;1757980;81;20853;-64
2022/03/18 07:01:25;;;;;;;12.07;4.70;;;;;;;-3.71;64.29;146753.72;1757406;81;21223;-65
2022/03/18 07:03:53;;;;;;;10.72;4.80;;;;;;;-3.67;65.16;146763.97;1757379;80;21061;-64
2022/03/18 07:06:20;;;;;;;16.25;6.42;;;;;;;-3.63;65.08;146772.97;1757005;81;21478;-64
2022/03/18 07:08:47;;;;;;;16.00;6.30;;;;;;;-3.62;65.45;146776.78;1757477;80;20993;-65
2022/03/18 07:11:14;;;;;;;13.18;5.72;;;;;;;-3.56;65.61;146790.91;1757258;81;21528;-63
2022/03/18 07:13:43;;;;;;;20.95;5.17;;;;;;;-3.47;64.29;146813.98;1757654;80;20936;-64
2022/03/18 07:18:57;;;;;;;13.93;6.33;;;;;;;-3.38;64.22;146835.81;1757441;80;20862;-64
2022/03/18 07:21:24;;;;;;;17.20;4.58;;;;;;;-3.36;64.00;146840.94;1757238;81;21059;-65
2022/03/18 07:23:52;;;;;;;11.88;5.80;;;;;;;-3.07;63.40;146911.53;1757799;80;21540;-64
2022/03/18 07:29:04;;;;;;;14.75;6.10;;;;;;;-2.46;62.28;147063.06;1707006;83;21539;-65
2022/03/18 07:31:32;;;;;;;16.17;5.55;;;;;;;-1.99;60.98;147179.97;1706166;82;21065;-65
2022/03/18 07:33:59;;;;;;;29.52;6.30;;;;;;;-1.62;59.30;147271.20;1706471;84;20963;-65
2022/03/18 07:36:27;;;;;;;11.93;4.75;;;;;;;-1.50;55.68;147302.02;1683160;84;35892;-64
2022/03/18 07:38:54;;;;;;;21.50;5.75;;;;;;;-1.85;54.45;147213.34;1706316;84;21296;-64
2022/03/18 07:41:21;;;;;;;16.95;5.83;;;;;;;-2.28;55.92;147106.75;1706377;83;20974;-64
2022/03/18 07:43:49;;;;;;;12.15;5.15;;;;;;;-2.63;56.75;147021.95;1706597;83;20983;-63
2022/03/18 07:46:17;;;;;;;15.55;5.87;;;;;;;-2.89;57.71;146957.77;1706084;83;21041;-64
2022/03/18 07:48:45;;;;;;;17.23;4.97;;;;;;;-3.06;57.45;146914.09;1706469;84;21061;-65
2022/03/18 07:51:12;;;;;;;11.33;5.15;;;;;;;-3.23;58.32;146873.02;1706733;83;21021;-59
2022/03/18 07:53:41;;;;;;;10.55;5.03;;;;;;;-3.28;58.93;146860.19;1706557;83;21037;-59
2022/03/18 07:56:10;;;;;;;13.15;4.40;;;;;;;-3.24;58.80;146869.19;1681165;84;21001;-60
2022/03/18 07:58:37;;;;;;;12.18;4.58;;;;;;;-3.14;59.22;146893.58;1705791;84;21491;-59
2022/03/18 08:01:08;;;;;;;11.70;4.78;;;;;;;-3.00;58.88;146928.23;1645272;87;21101;-58
2022/03/18 08:03:35;;;;;;;11.85;5.22;;;;;;;-2.86;57.77;146962.89;1685057;85;21531;-60
2022/03/18 08:06:04;;;;;;;12.25;4.85;;;;;;;-2.73;57.96;146996.30;1645327;86;21101;-62
2022/03/18 08:08:33;;;;;;;9.13;4.80;;;;;;;-2.55;57.97;147039.91;1685208;85;21098;-58
2022/03/18 08:11:00;;;;;;;14.40;4.97;;;;;;;-2.35;58.12;147091.28;1685465;85;21376;-58
2022/03/18 08:13:27;;;;;;;14.15;4.90;;;;;;;-2.15;57.73;147140.11;1684282;84;21099;-59
2022/03/18 08:15:56;;;;;;;10.08;4.72;;;;;;;-1.99;57.45;147178.66;1704499;82;20984;-60
2022/03/18 08:18:24;;;;;;;15.18;5.37;;;;;;;-1.85;56.48;147213.34;1704254;83;21581;-57
2022/03/18 08:20:52;;;;;;;9.53;4.40;;;;;;;-1.78;55.82;147232.62;1704806;83;21040;-59
2022/03/18 08:23:20;;;;;;;11.95;4.72;;;;;;;-1.70;55.58;147250.61;1704215;83;21670;-64
2022/03/18 08:25:48;;;;;;;11.35;4.60;;;;;;;-1.68;55.26;147257.06;1704757;83;20985;-65
2022/03/18 08:28:18;;;;;;;10.03;4.28;;;;;;;-1.68;54.51;147255.75;1706863;83;21007;-64
2022/03/18 08:30:45;;;;;;;11.93;4.47;;;;;;;-1.75;53.97;147240.34;1710044;83;21512;-59
2022/03/18 08:33:12;;;;;;;9.88;5.25;;;;;;;-1.77;54.58;147235.20;1683918;84;21310;-58
2022/03/18 08:35:41;;;;;;;9.23;4.70;;;;;;;-1.77;55.77;147233.89;1709713;82;21146;-65
2022/03/18 08:38:09;;;;;;;11.33;5.33;;;;;;;-1.70;55.46;147250.61;1704679;84;21144;-58
2022/03/18 08:40:37;;;;;;;9.98;4.72;;;;;;;-1.65;55.57;147263.50;1710054;83;21225;-58
2022/03/18 08:43:09;;;;;;;10.13;5.12;;;;;;;-1.57;54.94;147282.73;1709715;82;21440;-59
2022/03/18 08:45:36;;;;;;;8.93;5.15;;;;;;;-1.51;55.53;147298.19;1705365;83;21020;-64
2022/03/18 08:48:06;;;;;;;10.28;4.80;;;;;;;-1.42;55.03;147320.05;1705043;83;21099;-59
2022/03/18 08:50:34;;;;;;;10.50;4.80;;;;;;;-1.40;54.18;147325.19;1710419;82;21244;-58
2022/03/18 08:53:09;;;;;;;13.45;5.83;;;;;;;-1.33;54.17;147344.47;1705086;84;21972;-65
2022/03/18 08:56:36;;;;;;;14.07;5.28;;;;;;;-1.30;53.87;147350.88;1709145;83;21462;-66
2022/03/18 08:59:23;;;;;;;12.28;5.53;;;;;;;-1.33;54.07;147343.17;1704741;84;21131;-58
2022/03/18 09:01:51;;;;;;;8.45;4.67;;;;;;;-1.37;53.28;147334.16;1710202;83;21012;-58
2022/03/18 09:04:19;;;;;;;10.20;4.95;;;;;;;-1.40;53.22;147326.44;1704892;83;21080;-58
2022/03/18 09:06:48;;;;;;;11.22;5.58;;;;;;;-1.47;52.00;147309.72;1710348;83;21399;-58
2022/03/18 09:09:17;;;;;;;11.70;5.47;;;;;;;-1.50;52.78;147300.77;1704694;84;21509;-59
2022/03/18 09:11:44;;;;;;;9.60;5.12;;;;;;;-1.49;53.53;147304.59;1710551;83;21024;-57
2022/03/18 09:14:12;;;;;;;11.65;5.20;;;;;;;-1.49;53.85;147304.59;1705233;83;21019;-57
2022/03/18 09:16:40;;;;;;;12.13;5.72;;;;;;;-1.49;53.17;147304.59;1710680;83;21485;-58
2022/03/18 09:19:07;;;;;;;14.30;6.22;;;;;;;-1.50;54.07;147302.02;1710528;82;21393;-58
2022/03/18 09:21:36;;;;;;;13.10;5.00;;;;;;;-1.48;54.09;147307.16;1710411;83;21055;-57
2022/03/18 09:24:05;;;;;;;10.08;5.12;;;;;;;-1.44;53.13;147316.17;1687574;83;21079;-58
2022/03/18 09:26:32;;;;;;;11.95;6.00;;;;;;;-1.35;53.45;147339.30;1710087;83;21469;-58
2022/03/18 09:29:00;;;;;;;11.73;5.70;;;;;;;-1.18;53.37;147381.75;1711511;83;21087;-58
2022/03/18 09:31:28;;;;;;;10.18;5.25;;;;;;;-1.07;53.80;147407.44;1712584;83;21150;-58
2022/03/18 09:33:56;;;;;;;11.50;5.40;;;;;;;-1.02;52.62;147421.59;1712544;83;20993;-58
2022/03/18 09:36:24;;;;;;;11.38;5.22;;;;;;;-0.99;51.63;147428.05;1712133;83;21000;-59
2022/03/18 09:38:52;;;;;;;10.25;5.33;;;;;;;-1.02;51.94;147420.28;1712274;83;20965;-58
2022/03/18 09:41:19;;;;;;;9.73;5.10;;;;;;;-1.00;52.99;147425.44;1712259;83;20999;-59
2022/03/18 09:43:47;;;;;;;10.58;4.95;;;;;;;-0.94;52.95;147440.91;1712616;83;21414;-58
2022/03/18 09:46:16;;;;;;;8.65;4.40;;;;;;;-0.87;52.29;147458.88;1712518;83;21609;-60
2022/03/18 09:48:44;;;;;;;12.05;5.67;;;;;;;-0.89;51.82;147453.75;1712551;83;21028;-58
2022/03/18 09:51:12;;;;;;;14.20;5.70;;;;;;;-0.89;53.31;147453.75;1712082;83;21596;-58
2022/03/18 09:53:39;;;;;;;8.10;4.37;;;;;;;-0.77;53.41;147482.06;1711732;83;21115;-59
2022/03/18 09:56:08;;;;;;;11.30;5.15;;;;;;;-0.67;52.83;147507.77;1712793;83;21243;-57
2022/03/18 09:58:37;;;;;;;11.43;4.83;;;;;;;-0.58;52.70;147529.64;1712855;83;21048;-57
2022/03/18 10:01:04;;;;;;;13.18;5.17;;;;;;;-0.50;51.56;147548.94;1667256;83;21095;-56
2022/03/18 10:03:42;;;;;;;10.82;4.50;;;;;;;-0.48;51.57;147555.34;1712614;83;21084;-58
2022/03/18 10:06:11;;;;;;;9.70;4.90;;;;;;;-0.48;52.29;147555.34;1713075;83;21091;-58
2022/03/18 10:08:49;;;;;;;11.20;5.42;;;;;;;-0.47;52.65;147557.91;1712814;83;21142;-58
2022/03/18 10:11:27;;;;;;;11.68;5.05;;;;;;;-0.43;52.23;147566.94;1712887;83;21012;-64
2022/03/18 10:14:07;;;;;;;11.93;5.55;;;;;;;-0.46;52.87;147559.22;1711400;83;21047;-64
2022/03/18 10:16:54;;;;;;;9.08;4.85;;;;;;;-0.47;51.83;147556.66;1712897;83;21703;-66
2022/03/18 10:19:24;;;;;;;17.87;5.87;;;;;;;-0.38;50.66;147579.78;1712427;83;21536;-65
2022/03/18 10:21:59;;;;;;;12.47;5.60;;;;;;;-0.43;49.91;147566.94;1712684;83;20952;-65
2022/03/18 10:24:29;;;;;;;10.57;5.23;;;;;;;-0.48;51.74;147554.08;1712132;83;21134;-58
2022/03/18 10:27:15;;;;;;;12.07;4.75;;;;;;;-0.51;51.26;147547.62;1712493;83;21442;-58
2022/03/18 10:29:53;;;;;;;14.95;4.95;;;;;;;-0.49;49.89;147551.50;1710762;83;21054;-58
2022/03/18 10:32:23;;;;;;;10.60;4.85;;;;;;;-0.42;50.71;147568.25;1705155;83;21079;-59
2022/03/18 10:37:53;;;;;;;9.15;4.80;;;;;;;-0.21;50.28;147620.97;1705595;83;21950;-64
2022/03/18 10:40:36;;;;;;;11.75;4.87;;;;;;;-0.15;50.94;147636.41;1710156;83;21477;-63
2022/03/18 10:43:06;;;;;;;7.53;4.62;;;;;;;-0.05;51.46;147662.16;1705392;83;21086;-63
2022/03/18 10:45:34;;;;;;;11.50;5.17;;;;;;;0.04;49.31;147682.73;1705151;84;21111;-64
2022/03/18 10:48:15;;;;;;;12.82;5.28;;;;;;;0.08;49.86;147694.34;1705457;83;21186;-59
2022/03/18 10:50:45;;;;;;;9.08;4.90;;;;;;;0.13;49.75;147705.94;1705489;83;20945;-57
2022/03/18 10:53:13;;;;;;;9.15;4.78;;;;;;;0.17;50.25;147716.22;1710509;82;21078;-58
2022/03/18 10:55:43;;;;;;;14.33;5.47;;;;;;;0.19;50.78;147720.06;1705120;83;21055;-58
2022/03/18 10:58:19;;;;;;;11.73;5.33;;;;;;;0.22;50.73;147729.08;1705418;83;21067;-58
2022/03/18 11:00:50;;;;;;;15.13;5.78;;;;;;;0.22;49.29;147729.08;1710258;83;20846;-58
2022/03/18 11:03:17;;;;;;;8.73;4.53;;;;;;;0.19;48.45;147721.38;1705232;84;21076;-64
2022/03/18 11:05:47;;;;;;;12.58;5.25;;;;;;;0.17;49.31;147716.22;1705137;84;21008;-64
2022/03/18 11:08:21;;;;;;;9.75;4.67;;;;;;;0.22;49.81;147729.08;1705310;83;21127;-64
2022/03/18 11:11:15;;;;;;;11.38;5.17;;;;;;;0.24;49.06;147734.22;1709478;82;21008;-63
2022/03/18 11:13:51;;;;;;;15.58;6.12;;;;;;;0.25;48.75;147736.80;1705116;84;20952;-64
2022/03/18 11:16:26;;;;;;;9.55;4.75;;;;;;;0.30;49.02;147747.09;1705313;83;21115;-63
2022/03/18 11:18:53;;;;;;;10.30;5.55;;;;;;;0.28;49.27;147743.25;1705697;83;21517;-57
2022/03/18 11:21:25;;;;;;;13.60;5.45;;;;;;;0.21;49.62;147726.50;1710098;83;20956;-58
2022/03/18 11:23:55;;;;;;;10.05;4.95;;;;;;;0.16;49.54;147712.34;1705659;83;21000;-57
2022/03/18 11:26:23;;;;;;;11.00;4.45;;;;;;;0.16;49.29;147713.66;1705381;84;21148;-58
2022/03/18 11:29:14;;;;;;;10.03;4.67;;;;;;;0.19;49.60;147720.06;1711281;83;20961;-58
2022/03/18 11:31:41;;;;;;;12.80;4.67;;;;;;;0.19;49.88;147720.06;1712756;83;21048;-58
2022/03/18 11:34:17;;;;;;;8.05;4.47;;;;;;;0.10;49.97;147698.17;1712080;83;21448;-64
2022/03/18 11:36:47;;;;;;;11.73;5.50;;;;;;;0.03;51.08;147680.17;1712826;83;21071;-63
2022/03/18 11:39:22;;;;;;;9.53;4.85;;;;;;;0.01;51.93;147675.02;1712592;83;21241;-63
2022/03/18 11:41:55;;;;;;;10.58;5.03;;;;;;;-0.04;52.22;147664.73;1712343;83;20970;-63
2022/03/18 11:44:45;;;;;;;13.90;6.12;;;;;;;-0.06;52.83;147659.59;1711130;83;21082;-64
2022/03/18 11:47:33;;;;;;;9.00;5.08;;;;;;;-0.02;51.34;147669.88;1697939;83;21051;-58
2022/03/18 11:50:32;;;;;;;13.15;6.30;;;;;;;-0.02;49.93;147668.56;1712005;83;21079;-64